Time;durP1;ratioP1;P1;durP2;ratioP2;P2;SDS_P1;SDS_P2;PMS_P1;PMS_P2;Temp;Humidity;BMP_temperature;BMP_pressure;BME280_temperature;BME280_humidity;BME280_pressure;Samples;Min_cycle;Max_cycle;Signal;HPM_P1;HPM_P2
2022/02/11 00:01:02;;;;;;;6.67;5.07;;;;;;;6.73;90.43;153090.41;5090383;28;20437;-77
2022/02/11 00:06:48;;;;;;;7.00;5.17;;;;;;;6.74;91.99;153093.03;5108740;28;20457;-76
2022/02/11 00:09:24;;;;;;;6.90;5.20;;;;;;;6.74;90.82;153091.72;5107531;27;20437;-77
2022/02/11 00:11:59;;;;;;;6.67;5.43;;;;;;;6.76;92.33;153096.88;5111347;28;20841;-76
2022/02/11 00:14:44;;;;;;;7.43;5.50;;;;;;;6.70;91.77;153082.66;5092418;28;20444;-77
2022/02/11 00:17:20;;;;;;;7.37;5.27;;;;;;;6.68;90.36;153076.22;5100825;28;20804;-77
2022/02/11 00:19:55;;;;;;;6.83;5.37;;;;;;;6.68;89.92;153076.22;5090679;28;20441;-76
2022/02/11 00:22:33;;;;;;;7.53;5.20;;;;;;;6.68;89.74;153076.22;5108840;28;20859;-76
2022/02/11 00:25:09;;;;;;;8.00;5.43;;;;;;;6.66;89.25;153071.06;5108160;27;20989;-77
2022/02/11 00:33:35;;;;;;;7.40;5.67;;;;;;;6.64;90.93;153065.91;5082540;28;20443;-76
2022/02/11 00:36:12;;;;;;;6.13;5.53;;;;;;;6.66;91.64;153072.38;5087900;28;20436;-76
2022/02/11 00:39:05;;;;;;;7.63;5.93;;;;;;;6.64;90.63;153065.91;5109283;27;20472;-77
2022/02/11 01:02:09;;;;;;;5.07;4.57;;;;;;;6.58;91.02;153050.41;5093220;28;20452;-76
2022/02/11 01:02:25;;;;;;;6.63;5.87;;;;;;;6.54;88.29;153041.38;5078302;28;20448;-76
2022/02/11 01:05:01;;;;;;;6.83;5.30;;;;;;;6.58;90.55;153050.41;5103854;28;20456;-76
2022/02/11 01:07:36;;;;;;;8.10;5.90;;;;;;;6.57;91.42;153047.81;5102985;28;20448;-76
2022/02/11 01:10:15;;;;;;;10.00;6.40;;;;;;;6.49;88.88;153028.47;5106579;27;20887;-76
2022/02/11 01:12:52;;;;;;;8.77;6.20;;;;;;;6.50;89.65;153029.75;5092818;28;20436;-76
2022/02/11 01:15:30;;;;;;;6.93;6.17;;;;;;;6.49;89.90;153027.16;5098535;28;20436;-76
2022/02/11 01:18:10;;;;;;;7.83;5.80;;;;;;;6.50;90.86;153031.06;5089040;28;20799;-76
2022/02/11 01:20:50;;;;;;;9.50;6.10;;;;;;;6.50;91.91;153031.06;5101472;28;20811;-76
2022/02/11 01:23:42;;;;;;;9.07;6.37;;;;;;;6.45;89.70;153016.88;5107683;28;20444;-76
2022/02/11 01:26:30;;;;;;;7.00;6.27;;;;;;;6.44;92.31;153015.56;5104444;28;20465;-76
2022/02/11 01:29:34;;;;;;;8.73;7.17;;;;;;;6.37;88.83;152997.53;5104536;28;20448;-76
2022/02/11 01:32:25;;;;;;;7.03;5.57;;;;;;;6.37;89.62;152996.22;5102109;28;20488;-77
2022/02/11 01:35:11;;;;;;;7.30;6.30;;;;;;;6.37;90.50;152997.53;5106356;28;20437;-77
2022/02/11 01:37:55;;;;;;;10.07;6.70;;;;;;;6.32;90.58;152983.31;5101459;27;20445;-77
2022/02/11 01:41:35;;;;;;;6.70;5.60;;;;;;;6.30;89.27;152978.16;5103119;28;20460;-77
2022/02/11 01:44:11;;;;;;;7.27;5.60;;;;;;;6.23;88.87;152960.06;5103955;28;20476;-77
2022/02/11 01:52:43;;;;;;;10.07;6.50;;;;;;;6.21;88.90;152956.22;5093857;28;20451;-77
2022/02/11 01:55:38;;;;;;;7.33;5.80;;;;;;;6.23;90.13;152960.06;5087133;28;20461;-77
2022/02/11 01:58:51;;;;;;;10.30;6.27;;;;;;;6.22;89.81;152957.53;5104667;28;20444;-77
2022/02/11 02:13:37;;;;;;;7.47;5.90;;;;;;;6.14;88.47;152939.44;5092848;28;20486;-77
2022/02/11 02:25:04;;;;;;;6.03;4.83;;;;;;;6.12;89.40;152934.28;5108106;28;20447;-77
2022/02/11 02:28:05;;;;;;;5.90;5.00;;;;;;;6.16;90.39;152943.31;5105289;28;20448;-77
2022/02/11 02:33:56;;;;;;;5.20;4.40;;;;;;;6.08;89.87;152923.97;5097809;28;20444;-77
2022/02/11 02:43:22;;;;;;;4.50;3.73;;;;;;;6.02;89.33;152908.50;5091042;28;20432;-77
2022/02/11 02:57:17;;;;;;;5.43;3.67;;;;;;;5.94;91.92;152887.84;5085505;28;20436;-77
2022/02/11 03:00:14;;;;;;;4.50;3.00;;;;;;;5.83;91.13;152858.13;5089235;28;20971;-77
2022/02/11 03:14:57;;;;;;;4.20;3.80;;;;;;;5.72;98.49;152829.78;5102220;28;20448;-77
2022/02/11 03:31:30;;;;;;;6.13;5.03;;;;;;;5.71;99.08;152827.19;5090222;28;20455;-77
2022/02/11 03:35:26;;;;;;;3.93;3.07;;;;;;;5.44;100.00;152760.13;5090686;28;20566;-77
2022/02/11 03:49:50;;;;;;;3.80;2.93;;;;;;;5.21;100.00;152700.84;5105688;28;20440;-78
2022/02/11 03:52:54;;;;;;;2.13;1.93;;;;;;;5.19;100.00;152695.66;5108923;28;20440;-78
2022/02/11 04:22:28;;;;;;;2.10;1.90;;;;;;;3.60;100.00;152288.66;5093796;28;20449;-77
2022/02/11 04:57:00;;;;;;;3.90;3.50;;;;;;;2.94;100.00;152120.00;5108044;28;20528;-77
2022/02/11 04:59:38;;;;;;;3.87;2.97;;;;;;;2.92;100.00;152116.16;5087708;28;20448;-77
2022/02/11 05:02:14;;;;;;;2.80;2.60;;;;;;;2.93;100.00;152117.47;5106289;28;20460;-77
2022/02/11 05:04:55;;;;;;;3.20;2.77;;;;;;;2.92;100.00;152114.88;5090471;28;20435;-77
2022/02/11 05:07:31;;;;;;;5.17;3.00;;;;;;;2.88;100.00;152104.59;5103684;28;20455;-77
2022/02/11 05:10:09;;;;;;;4.60;3.70;;;;;;;2.89;100.00;152108.44;5089014;28;20447;-77
2022/02/11 05:12:44;;;;;;;3.87;3.47;;;;;;;2.96;100.00;152126.50;5091904;28;20789;-76
2022/02/11 05:15:23;;;;;;;4.40;4.00;;;;;;;2.97;100.00;152127.75;5089050;28;20541;-77
2022/02/11 05:18:01;;;;;;;5.20;3.67;;;;;;;2.96;100.00;152125.19;5106382;28;20448;-77
2022/02/11 05:20:38;;;;;;;4.83;4.30;;;;;;;2.92;100.00;152114.88;5105709;28;20439;-77
2022/02/11 05:23:15;;;;;;;4.83;4.27;;;;;;;2.85;100.00;152098.19;5099805;28;20463;-77
2022/02/11 05:25:50;;;;;;;4.50;3.83;;;;;;;2.85;100.00;152096.88;5101029;28;20563;-77
2022/02/11 05:28:26;;;;;;;5.20;4.20;;;;;;;2.89;100.00;152108.44;5102475;28;20483;-77
2022/02/11 05:31:03;;;;;;;4.47;3.20;;;;;;;2.77;100.00;152076.28;5103771;28;20437;-77
2022/02/11 05:33:39;;;;;;;5.20;3.63;;;;;;;2.89;100.00;152107.16;5100558;28;20555;-77
2022/02/11 05:36:14;;;;;;;4.60;3.70;;;;;;;2.86;100.00;152100.72;5087454;28;20436;-77
2022/02/11 05:38:50;;;;;;;4.33;3.50;;;;;;;2.87;100.00;152103.31;5090703;28;20482;-77
2022/02/11 05:41:25;;;;;;;4.07;3.27;;;;;;;2.92;100.00;152114.88;5099147;28;20448;-77
2022/02/11 05:44:01;;;;;;;4.13;3.73;;;;;;;2.89;100.00;152107.16;5094248;28;20485;-77
2022/02/11 05:46:38;;;;;;;4.23;3.40;;;;;;;2.91;100.00;152112.34;5105937;27;20452;-77
2022/02/11 05:49:13;;;;;;;4.37;3.97;;;;;;;2.84;100.00;152095.59;5106955;27;20463;-77
2022/02/11 05:51:49;;;;;;;4.07;3.50;;;;;;;2.86;100.00;152100.72;5095896;28;20468;-77
2022/02/11 05:54:25;;;;;;;4.03;3.53;;;;;;;2.88;100.00;152104.59;5102263;28;20448;-77
2022/02/11 05:57:00;;;;;;;4.53;3.90;;;;;;;2.86;100.00;152099.47;5107684;28;20440;-76
2022/02/11 05:59:36;;;;;;;4.80;3.30;;;;;;;2.82;100.00;152089.16;5104287;28;20432;-76
2022/02/11 06:02:13;;;;;;;4.17;3.30;;;;;;;2.79;100.00;152081.44;5085321;28;20459;-77
2022/02/11 06:04:48;;;;;;;5.30;4.10;;;;;;;2.78;100.00;152078.88;5106102;28;20431;-76
2022/02/11 06:07:24;;;;;;;6.00;4.20;;;;;;;2.90;100.00;152109.75;5102284;28;20479;-76
2022/02/11 06:09:59;;;;;;;6.37;4.73;;;;;;;2.91;100.00;152113.56;5093945;28;20443;-76
2022/02/11 06:12:35;;;;;;;4.87;4.10;;;;;;;2.95;100.00;152123.91;5099585;28;20474;-76
2022/02/11 06:15:11;;;;;;;5.07;4.37;;;;;;;3.02;100.00;152140.59;5086236;28;20517;-76
2022/02/11 06:17:48;;;;;;;5.10;4.00;;;;;;;2.93;100.00;152117.47;5100870;27;20777;-76
2022/02/11 06:20:27;;;;;;;5.77;4.50;;;;;;;2.94;100.00;152121.31;5077588;28;20444;-76
2022/02/11 06:23:03;;;;;;;7.33;4.13;;;;;;;2.94;100.00;152120.00;5086933;28;20457;-75
2022/02/11 06:25:39;;;;;;;5.70;4.37;;;;;;;2.92;100.00;152116.16;5101018;27;20870;-75
2022/02/11 06:28:16;;;;;;;5.40;4.30;;;;;;;2.92;100.00;152114.88;5104079;28;20451;-76
2022/02/11 06:30:51;;;;;;;6.00;4.17;;;;;;;2.89;100.00;152108.44;5102683;28;20436;-77
2022/02/11 06:33:28;;;;;;;8.00;4.57;;;;;;;2.96;100.00;152125.19;5086218;28;20455;-77
2022/02/11 06:36:04;;;;;;;6.40;4.27;;;;;;;2.94;100.00;152121.31;5098386;28;20467;-77
2022/02/11 06:38:40;;;;;;;5.63;4.60;;;;;;;2.89;100.00;152107.16;5102774;28;20467;-77
2022/02/11 06:41:16;;;;;;;5.10;4.20;;;;;;;2.94;100.00;152120.00;5094380;28;20449;-77
2022/02/11 06:43:51;;;;;;;5.63;4.13;;;;;;;2.89;100.00;152107.16;5083151;28;20479;-76
2022/02/11 06:46:27;;;;;;;5.07;4.07;;;;;;;2.87;100.00;152102.00;5100118;28;20565;-76
2022/02/11 06:49:04;;;;;;;4.43;4.03;;;;;;;2.87;100.00;152102.00;5099760;28;20574;-76
2022/02/11 06:51:40;;;;;;;4.83;3.33;;;;;;;2.84;100.00;152095.59;5098524;28;20444;-76
2022/02/11 06:54:15;;;;;;;6.33;3.80;;;;;;;2.84;100.00;152094.28;5083431;28;20956;-76
2022/02/11 06:56:51;;;;;;;5.33;3.83;;;;;;;2.85;100.00;152096.88;5100896;28;20441;-76
2022/02/11 06:59:27;;;;;;;4.53;2.80;;;;;;;2.81;100.00;152086.56;5088793;28;20457;-76
2022/02/11 07:02:02;;;;;;;6.03;3.33;;;;;;;2.78;100.00;152078.88;5089733;28;20516;-77
2022/02/11 07:04:39;;;;;;;4.50;3.20;;;;;;;2.80;100.00;152084.03;5102851;28;20542;-76
2022/02/11 07:07:15;;;;;;;4.23;3.10;;;;;;;2.73;100.00;152065.97;5095932;28;20475;-76
2022/02/11 07:09:52;;;;;;;5.30;3.57;;;;;;;2.69;100.00;152055.72;5100210;28;20447;-77
2022/02/11 07:12:28;;;;;;;4.23;3.50;;;;;;;2.69;100.00;152057.00;5097829;28;20452;-76
2022/02/11 07:15:06;;;;;;;4.30;3.63;;;;;;;2.64;100.00;152042.84;5089342;28;20471;-76
2022/02/11 07:17:42;;;;;;;4.23;3.83;;;;;;;2.61;100.00;152035.13;5104940;28;20827;-76
2022/02/11 07:20:19;;;;;;;5.00;4.00;;;;;;;2.66;100.00;152048.00;5104374;28;20447;-77
2022/02/11 07:22:55;;;;;;;5.70;3.80;;;;;;;2.60;100.00;152033.84;5103327;28;20443;-76
2022/02/11 07:25:32;;;;;;;4.60;3.50;;;;;;;2.53;100.00;152014.56;5101906;28;20431;-76
2022/02/11 07:28:08;;;;;;;6.90;3.50;;;;;;;2.59;100.00;152030.00;5104138;28;20470;-76
2022/02/11 07:30:43;;;;;;;6.50;3.57;;;;;;;2.66;100.00;152048.00;5106220;28;20452;-76
2022/02/11 07:33:19;;;;;;;5.10;3.77;;;;;;;2.67;100.00;152051.88;5105155;28;20463;-76
2022/02/11 07:35:56;;;;;;;4.10;3.27;;;;;;;2.62;100.00;152038.97;5090131;28;20492;-75
2022/02/11 07:38:32;;;;;;;5.30;3.63;;;;;;;2.69;100.00;152057.00;5108257;28;20549;-76
2022/02/11 07:41:07;;;;;;;4.27;3.40;;;;;;;2.73;100.00;152065.97;5107822;28;20444;-76
2022/02/11 07:43:45;;;;;;;4.13;3.30;;;;;;;2.71;100.00;152062.16;5107385;28;20467;-75
2022/02/11 07:46:21;;;;;;;4.57;4.10;;;;;;;2.92;100.00;152116.16;5105679;28;20517;-76
2022/02/11 07:48:57;;;;;;;4.40;3.60;;;;;;;3.20;100.00;152186.97;5090564;28;20444;-76
2022/02/11 07:51:34;;;;;;;5.70;3.90;;;;;;;3.46;100.00;152252.59;5092525;28;20444;-76
2022/02/11 07:54:11;;;;;;;4.30;3.40;;;;;;;3.69;100.00;152313.09;5092360;28;20791;-76
2022/02/11 07:56:50;;;;;;;4.40;3.50;;;;;;;3.90;99.27;152364.56;5106977;28;20641;-76
2022/02/11 07:59:29;;;;;;;4.50;3.53;;;;;;;4.13;98.32;152423.84;5107335;28;20461;-76
2022/02/11 08:02:05;;;;;;;3.63;3.33;;;;;;;4.13;96.96;152425.09;5090121;28;20436;-76
2022/02/11 08:04:40;;;;;;;3.73;3.07;;;;;;;4.31;97.00;152470.19;5108529;27;20428;-76
2022/02/11 08:07:17;;;;;;;4.07;3.50;;;;;;;4.42;95.38;152498.50;5094276;28;20483;-76
2022/02/11 08:09:53;;;;;;;4.67;4.20;;;;;;;4.45;96.16;152506.22;5102984;28;20448;-76
2022/02/11 08:12:29;;;;;;;4.37;3.53;;;;;;;4.39;95.48;152490.81;5092755;28;20445;-76
2022/02/11 08:15:06;;;;;;;3.70;3.23;;;;;;;4.45;95.61;152506.22;5105375;28;20435;-76
2022/02/11 08:17:42;;;;;;;4.47;3.70;;;;;;;4.45;95.08;152504.97;5105872;28;20437;-76
2022/02/11 08:20:17;;;;;;;7.67;4.00;;;;;;;4.43;94.10;152501.09;5106884;28;20533;-76
2022/02/11 08:22:54;;;;;;;5.10;3.67;;;;;;;4.41;94.16;152495.94;5085199;28;20958;-76
2022/02/11 08:25:29;;;;;;;4.80;3.20;;;;;;;4.50;93.78;152519.09;5108364;28;20448;-76
2022/02/11 08:28:05;;;;;;;5.53;4.17;;;;;;;4.30;94.52;152467.59;5107108;28;20479;-77
2022/02/11 08:30:42;;;;;;;4.17;3.40;;;;;;;4.32;94.99;152472.75;5091562;28;21080;-77
2022/02/11 08:33:21;;;;;;;3.93;3.07;;;;;;;4.31;91.92;152470.19;5104021;28;20444;-76
2022/02/11 08:35:57;;;;;;;6.07;3.23;;;;;;;4.34;92.91;152477.94;5105264;27;20437;-76
2022/02/11 08:38:34;;;;;;;5.50;3.50;;;;;;;4.36;92.58;152481.78;5106610;28;20448;-76
2022/02/11 08:41:10;;;;;;;3.50;3.20;;;;;;;4.30;92.16;152467.59;5107599;28;20470;-77
2022/02/11 08:43:45;;;;;;;3.97;3.57;;;;;;;4.23;92.26;152449.59;5103206;28;20563;-76
2022/02/11 08:46:21;;;;;;;4.60;3.30;;;;;;;4.28;92.31;152463.75;5102711;28;20954;-76
2022/02/11 08:48:57;;;;;;;4.50;3.00;;;;;;;4.28;92.71;152462.47;5105613;28;20794;-76
2022/02/11 08:51:33;;;;;;;4.03;3.00;;;;;;;4.23;90.98;152450.88;5084855;28;20437;-76
2022/02/11 08:54:10;;;;;;;4.43;3.33;;;;;;;4.20;92.32;152441.84;5106290;28;20455;-76
2022/02/11 08:56:45;;;;;;;3.90;3.17;;;;;;;4.23;92.10;152449.59;5105100;28;20939;-76
2022/02/11 08:59:21;;;;;;;3.40;3.10;;;;;;;4.14;88.33;152426.38;5087204;28;20452;-76
2022/02/11 09:01:56;;;;;;;4.43;3.50;;;;;;;4.23;90.04;152449.59;5097597;28;20441;-76
2022/02/11 09:04:32;;;;;;;4.50;3.60;;;;;;;4.33;88.86;152475.34;5085441;28;20448;-76
2022/02/11 09:07:08;;;;;;;4.80;3.20;;;;;;;4.38;90.72;152488.22;5103575;28;22477;-76
2022/02/11 09:09:45;;;;;;;6.43;3.77;;;;;;;4.37;89.20;152485.63;5106798;27;20475;-76
2022/02/11 09:12:20;;;;;;;4.80;3.30;;;;;;;4.42;90.37;152498.50;5108505;28;20542;-76
2022/02/11 09:14:56;;;;;;;5.00;3.33;;;;;;;4.50;88.75;152519.09;5091345;28;20436;-76
2022/02/11 09:17:31;;;;;;;4.00;3.07;;;;;;;4.52;89.41;152524.28;5102679;28;20448;-76
2022/02/11 09:20:08;;;;;;;3.00;2.70;;;;;;;4.57;88.59;152537.19;5086414;28;20459;-76
2022/02/11 09:22:44;;;;;;;4.70;3.50;;;;;;;4.64;88.71;152555.19;5105419;28;20455;-76
2022/02/11 09:25:21;;;;;;;3.13;2.83;;;;;;;4.64;87.06;152555.19;5091632;28;20536;-76
2022/02/11 09:27:57;;;;;;;5.93;3.30;;;;;;;4.52;86.93;152524.28;5102558;28;20841;-76
2022/02/11 09:30:33;;;;;;;6.43;3.03;;;;;;;4.55;88.09;152532.03;5089001;28;20794;-76
2022/02/11 09:33:08;;;;;;;5.60;3.13;;;;;;;4.50;88.12;152519.09;5084774;28;20453;-76
2022/02/11 09:35:45;;;;;;;4.50;3.10;;;;;;;4.46;89.61;152508.81;5091690;28;20432;-76
2022/02/11 09:38:22;;;;;;;4.50;3.43;;;;;;;4.51;87.71;152521.69;5089177;28;20950;-76
2022/02/11 09:41:00;;;;;;;3.40;2.90;;;;;;;4.65;87.39;152557.78;5106362;28;20684;-76
2022/02/11 09:43:36;;;;;;;6.37;3.63;;;;;;;4.53;88.05;152525.53;5101048;28;20468;-76
2022/02/11 09:46:12;;;;;;;3.23;2.70;;;;;;;4.57;85.22;152535.88;5105210;28;20436;-76
2022/02/11 09:48:47;;;;;;;5.50;3.40;;;;;;;4.63;86.41;152552.59;5105871;28;20460;-76
2022/02/11 09:51:23;;;;;;;4.03;3.37;;;;;;;4.55;86.35;152532.03;5102612;28;20522;-76
2022/02/11 09:53:58;;;;;;;4.10;2.93;;;;;;;4.66;85.38;152560.34;5100092;28;20974;-77
2022/02/11 09:56:36;;;;;;;3.23;2.80;;;;;;;4.72;88.13;152575.81;5106864;28;20690;-76
2022/02/11 09:59:12;;;;;;;5.47;2.80;;;;;;;4.74;85.47;152580.97;5105461;28;20428;-76
2022/02/11 10:01:48;;;;;;;4.53;3.63;;;;;;;4.82;83.65;152601.56;5084997;28;20479;-76
2022/02/11 10:04:23;;;;;;;4.33;3.00;;;;;;;4.75;83.60;152583.56;5104848;28;20577;-76
2022/02/11 10:07:00;;;;;;;4.80;3.50;;;;;;;4.73;84.95;152578.41;5085617;28;20460;-76
2022/02/11 10:09:36;;;;;;;4.83;2.73;;;;;;;4.70;83.56;152570.66;5081684;28;20445;-76
2022/02/11 10:12:14;;;;;;;4.00;3.30;;;;;;;4.77;84.62;152588.69;5106064;28;20527;-76
2022/02/11 10:14:50;;;;;;;4.67;3.53;;;;;;;4.81;82.85;152597.72;5086053;28;20456;-76
2022/02/11 10:17:25;;;;;;;3.93;2.60;;;;;;;4.78;81.43;152591.28;5101731;28;20527;-76
2022/02/11 10:20:01;;;;;;;4.73;3.10;;;;;;;4.79;83.70;152593.84;5106093;28;20455;-76
2022/02/11 10:22:36;;;;;;;5.70;3.40;;;;;;;4.73;82.29;152577.13;5082999;28;20484;-76
2022/02/11 10:25:12;;;;;;;4.70;3.50;;;;;;;4.60;85.27;152544.91;5099572;28;20447;-76
2022/02/11 10:27:49;;;;;;;4.20;2.90;;;;;;;4.56;86.38;152533.28;5101499;28;20524;-76
2022/02/11 10:30:25;;;;;;;7.07;3.60;;;;;;;4.70;84.85;152570.66;5089227;28;20942;-76
2022/02/11 10:33:00;;;;;;;4.00;3.10;;;;;;;4.80;82.87;152596.44;5101939;28;20441;-76
2022/02/11 10:35:39;;;;;;;4.20;2.73;;;;;;;4.84;81.09;152606.72;5089500;28;20482;-76
2022/02/11 10:38:14;;;;;;;3.80;2.50;;;;;;;4.84;84.22;152606.72;5084291;28;20440;-76
2022/02/11 10:40:50;;;;;;;2.93;2.60;;;;;;;4.83;84.80;152604.16;5090483;28;20452;-76
2022/02/11 10:43:29;;;;;;;4.20;2.90;;;;;;;4.82;83.29;152600.28;5097219;28;20471;-76
2022/02/11 10:46:16;;;;;;;4.50;2.50;;;;;;;4.88;84.51;152617.06;5096748;28;20463;-76
2022/02/11 10:48:52;;;;;;;2.60;2.40;;;;;;;4.91;87.73;152624.78;5102263;28;20464;-76
2022/02/11 10:51:28;;;;;;;3.83;2.97;;;;;;;5.04;83.69;152655.69;5087954;28;20445;-76
2022/02/11 10:54:03;;;;;;;3.80;2.90;;;;;;;5.06;84.30;152660.84;5106438;28;20441;-76
2022/02/11 10:56:40;;;;;;;6.63;2.97;;;;;;;5.15;83.94;152685.38;5084176;28;20439;-76
2022/02/11 10:59:24;;;;;;;3.77;2.67;;;;;;;5.18;83.35;152691.81;5085113;28;20464;-76
2022/02/11 11:02:01;;;;;;;5.03;3.63;;;;;;;5.19;84.66;152694.41;5106583;28;20486;-76
2022/02/11 11:04:37;;;;;;;4.93;2.80;;;;;;;5.29;86.46;152720.19;5092303;28;20882;-76
2022/02/11 11:07:14;;;;;;;4.57;2.90;;;;;;;5.29;83.31;152721.47;5109940;28;20460;-76
2022/02/11 11:09:49;;;;;;;3.70;2.40;;;;;;;5.23;84.59;152706.00;5099525;28;20448;-76
2022/02/11 11:12:27;;;;;;;3.60;2.53;;;;;;;5.30;82.80;152722.72;5105395;28;20912;-76
2022/02/11 11:15:04;;;;;;;5.10;3.03;;;;;;;5.29;82.70;152721.47;5104972;28;20468;-76
2022/02/11 11:17:40;;;;;;;4.77;2.90;;;;;;;5.31;85.44;152725.31;5106668;28;20436;-76
2022/02/11 11:20:17;;;;;;;3.93;2.83;;;;;;;5.29;84.97;152720.19;5103432;27;20487;-76
2022/02/11 11:22:57;;;;;;;8.00;3.17;;;;;;;5.29;81.40;152720.19;5101268;28;20448;-76
2022/02/11 11:25:54;;;;;;;4.17;2.70;;;;;;;5.19;76.60;152694.41;5104551;28;20444;-76
2022/02/11 11:28:47;;;;;;;2.87;2.40;;;;;;;5.24;81.28;152707.28;5105369;28;21058;-76
2022/02/11 11:31:27;;;;;;;3.40;2.70;;;;;;;5.19;79.96;152694.41;5107199;28;20428;-76
2022/02/11 11:34:26;;;;;;;4.13;2.40;;;;;;;5.29;80.44;152720.19;5087524;28;20439;-76
2022/02/11 11:37:08;;;;;;;4.90;2.70;;;;;;;5.37;78.91;152740.81;5091275;28;20546;-76
2022/02/11 11:39:45;;;;;;;3.70;2.60;;;;;;;5.45;81.72;152761.44;5121902;27;20454;-76
2022/02/11 11:42:20;;;;;;;4.00;2.80;;;;;;;5.35;80.71;152736.91;5095275;28;20472;-76
2022/02/11 11:44:57;;;;;;;3.03;2.70;;;;;;;5.28;78.03;152718.88;5107018;28;20448;-76
2022/02/11 11:47:36;;;;;;;6.47;3.17;;;;;;;5.19;79.87;152694.41;5104296;28;20471;-76
2022/02/11 11:50:19;;;;;;;5.30;2.70;;;;;;;5.25;82.23;152709.84;5105021;28;20445;-76
2022/02/11 11:52:57;;;;;;;4.93;2.97;;;;;;;5.23;81.03;152706.00;5107072;28;20904;-76
2022/02/11 11:55:38;;;;;;;3.60;2.40;;;;;;;5.25;82.09;152711.13;5092527;28;20449;-76
2022/02/11 11:58:30;;;;;;;3.80;2.50;;;;;;;5.25;83.35;152709.84;5108844;28;20440;-76
2022/02/11 12:01:06;;;;;;;3.47;2.80;;;;;;;5.22;78.72;152702.09;5093316;28;20445;-76
2022/02/11 12:04:17;;;;;;;3.50;2.80;;;;;;;5.32;79.40;152727.91;5105992;28;20958;-76
2022/02/11 12:06:53;;;;;;;4.50;2.93;;;;;;;5.35;84.61;152736.91;5104497;28;20558;-76
2022/02/11 12:09:29;;;;;;;4.43;2.33;;;;;;;5.30;78.64;152724.03;5087579;28;20710;-76
2022/02/11 12:12:06;;;;;;;4.10;2.67;;;;;;;5.29;77.56;152721.47;5093102;28;20444;-76
2022/02/11 12:14:44;;;;;;;3.20;1.73;;;;;;;5.28;77.69;152717.59;5091070;28;20448;-76
2022/02/11 12:17:21;;;;;;;3.80;2.30;;;;;;;5.15;79.85;152684.06;5106712;28;20480;-76
2022/02/11 12:19:58;;;;;;;2.93;2.03;;;;;;;5.29;78.03;152720.19;5108786;28;20490;-76
2022/02/11 12:22:34;;;;;;;2.53;2.00;;;;;;;5.38;75.07;152743.34;5097478;28;20906;-76
2022/02/11 12:28:04;;;;;;;4.17;2.30;;;;;;;5.51;75.84;152778.19;5100611;28;20451;-75
2022/02/11 12:30:42;;;;;;;2.23;2.00;;;;;;;5.67;76.02;152818.16;5105065;28;20484;-75
2022/02/11 12:33:21;;;;;;;5.30;2.53;;;;;;;5.71;75.36;152828.47;5101196;28;20939;-75
2022/02/11 12:36:09;;;;;;;3.30;2.00;;;;;;;5.70;75.35;152825.88;5108594;28;20471;-75
2022/02/11 12:38:57;;;;;;;2.93;1.90;;;;;;;5.65;77.98;152813.00;5104146;28;20448;-75
2022/02/11 12:41:43;;;;;;;2.60;1.87;;;;;;;5.68;74.11;152820.75;5102573;28;20797;-75
2022/02/11 12:44:27;;;;;;;5.07;2.37;;;;;;;5.70;75.15;152825.88;5103074;28;20917;-75
2022/02/11 12:47:03;;;;;;;2.17;1.53;;;;;;;5.66;71.77;152814.28;5091248;28;20445;-75
2022/02/11 12:49:47;;;;;;;2.07;1.87;;;;;;;5.64;73.85;152810.41;5101054;28;20482;-75
2022/02/11 12:52:25;;;;;;;2.07;1.50;;;;;;;5.61;72.49;152801.41;5100378;28;20455;-76
2022/02/11 12:55:05;;;;;;;3.03;2.20;;;;;;;5.54;72.47;152784.63;5121965;27;20448;-75
2022/02/11 12:57:42;;;;;;;2.20;1.80;;;;;;;5.67;71.11;152818.16;5102475;28;20436;-75
2022/02/11 13:00:20;;;;;;;5.90;1.77;;;;;;;5.73;71.52;152833.63;5099735;28;20447;-75
2022/02/11 13:03:00;;;;;;;3.73;1.50;;;;;;;5.75;76.45;152838.78;5090109;28;20440;-76
2022/02/11 13:05:39;;;;;;;2.57;1.60;;;;;;;5.67;75.14;152818.16;5103419;28;20470;-75
2022/02/11 13:08:24;;;;;;;2.33;1.73;;;;;;;5.64;73.31;152810.41;5090670;28;20962;-75
2022/02/11 13:11:04;;;;;;;2.10;1.83;;;;;;;5.70;73.43;152825.88;5089711;28;20449;-75
2022/02/11 13:13:39;;;;;;;2.37;1.90;;;;;;;5.70;75.60;152825.88;5098497;28;20472;-76
2022/02/11 13:16:18;;;;;;;4.70;2.20;;;;;;;5.76;77.06;152841.38;5104923;28;20467;-75
2022/02/11 13:18:54;;;;;;;3.00;2.50;;;;;;;5.75;73.40;152837.47;5091086;28;20436;-75
2022/02/11 13:21:29;;;;;;;4.40;2.40;;;;;;;5.70;76.90;152825.88;5104900;28;20471;-76
2022/02/11 13:24:07;;;;;;;3.00;2.33;;;;;;;5.62;74.73;152803.97;5105354;28;20444;-76
2022/02/11 13:26:42;;;;;;;2.80;2.00;;;;;;;5.58;78.74;152793.66;5106796;27;20425;-76
2022/02/11 13:29:18;;;;;;;2.97;2.67;;;;;;;5.59;77.51;152797.50;5106797;28;20467;-76
2022/02/11 13:31:54;;;;;;;3.87;2.40;;;;;;;5.59;78.14;152797.50;5103386;27;21205;-76
2022/02/11 13:34:32;;;;;;;2.50;2.30;;;;;;;5.63;75.05;152807.84;5105194;28;20453;-76
2022/02/11 13:37:10;;;;;;;4.00;1.87;;;;;;;5.69;74.76;152823.34;5107535;28;20483;-75
2022/02/11 13:39:47;;;;;;;2.93;2.10;;;;;;;5.65;73.50;152813.00;5106476;28;20455;-75
2022/02/11 13:42:24;;;;;;;4.20;2.40;;;;;;;5.60;76.25;152800.09;5109452;27;20897;-76
2022/02/11 13:45:06;;;;;;;5.30;2.43;;;;;;;5.52;75.93;152779.47;5087228;28;20938;-75
2022/02/11 13:48:01;;;;;;;3.53;2.10;;;;;;;5.51;73.37;152776.88;5103933;28;20446;-76
2022/02/11 13:50:57;;;;;;;3.67;1.90;;;;;;;5.45;74.16;152761.44;5088495;28;20441;-76
2022/02/11 13:53:39;;;;;;;2.67;2.00;;;;;;;5.44;73.24;152760.13;5103361;28;20441;-76
2022/02/11 13:56:19;;;;;;;3.73;2.63;;;;;;;5.33;73.03;152731.78;5107640;27;20467;-76
2022/02/11 13:59:03;;;;;;;2.97;2.17;;;;;;;5.30;75.37;152722.72;5103533;28;20441;-76
2022/02/11 14:01:40;;;;;;;3.10;2.27;;;;;;;5.28;77.00;152717.59;5091459;28;20448;-76
2022/02/11 14:04:18;;;;;;;2.47;2.27;;;;;;;5.34;76.60;152733.06;5104349;28;20444;-76
2022/02/11 14:06:55;;;;;;;2.60;2.30;;;;;;;5.31;75.86;152726.63;5091330;28;20436;-76
2022/02/11 14:09:32;;;;;;;2.80;2.20;;;;;;;5.33;72.39;152730.47;5100695;28;20472;-76
2022/02/11 14:12:29;;;;;;;3.60;2.60;;;;;;;5.28;77.10;152717.59;5085836;28;20428;-76
2022/02/11 14:15:06;;;;;;;2.50;2.17;;;;;;;5.27;77.08;152716.28;5101750;28;20808;-76
2022/02/11 14:17:43;;;;;;;4.10;2.77;;;;;;;5.17;75.74;152690.50;5102067;28;20440;-76
2022/02/11 14:20:18;;;;;;;7.03;2.40;;;;;;;5.17;74.43;152689.22;5106314;28;20440;-76
2022/02/11 14:22:54;;;;;;;3.30;2.47;;;;;;;5.16;77.34;152686.66;5089291;28;20432;-76
2022/02/11 14:25:30;;;;;;;4.33;2.23;;;;;;;5.14;77.04;152681.47;5096647;28;21051;-76
2022/02/11 14:28:07;;;;;;;3.60;2.90;;;;;;;5.09;76.03;152668.59;5090165;28;20858;-76
2022/02/11 14:30:44;;;;;;;3.27;2.37;;;;;;;5.09;75.65;152668.59;5098140;28;20470;-76
2022/02/11 14:33:20;;;;;;;5.80;2.37;;;;;;;5.05;76.08;152659.59;5099734;28;20466;-76
2022/02/11 14:35:56;;;;;;;3.33;2.27;;;;;;;5.11;78.71;152673.78;5102535;28;20855;-76
2022/02/11 14:38:31;;;;;;;4.33;2.10;;;;;;;5.16;76.28;152687.97;5104523;28;20432;-75
2022/02/11 14:44:02;;;;;;;2.17;1.97;;;;;;;5.17;72.62;152689.22;5088979;28;20464;-76
2022/02/11 14:46:39;;;;;;;3.33;2.30;;;;;;;5.26;72.26;152712.44;5107518;28;20452;-76
2022/02/11 14:49:16;;;;;;;2.43;2.20;;;;;;;5.22;70.47;152702.09;5107916;28;20801;-76
2022/02/11 14:51:53;;;;;;;3.90;1.70;;;;;;;5.12;72.74;152676.31;5099912;28;20428;-76
2022/02/11 14:54:31;;;;;;;2.80;1.87;;;;;;;5.15;73.02;152684.06;5086516;28;20447;-76
2022/02/11 14:57:07;;;;;;;4.20;2.90;;;;;;;5.19;73.77;152694.41;5086921;28;20445;-76
2022/02/11 14:59:44;;;;;;;4.40;2.67;;;;;;;5.22;73.70;152703.41;5104016;28;20452;-76
2022/02/11 15:02:20;;;;;;;3.00;2.50;;;;;;;5.23;72.39;152704.69;5103335;28;21781;-76
2022/02/11 15:04:55;;;;;;;2.63;2.40;;;;;;;5.23;75.73;152706.00;5102008;28;20479;-76
2022/02/11 15:07:31;;;;;;;4.70;2.70;;;;;;;5.22;75.45;152702.09;5089351;28;20458;-76
2022/02/11 15:10:07;;;;;;;3.23;2.53;;;;;;;5.25;73.00;152709.84;5101927;28;20503;-76
2022/02/11 15:12:43;;;;;;;2.87;2.33;;;;;;;5.18;72.89;152691.81;5101938;28;20448;-76
2022/02/11 15:15:20;;;;;;;3.33;2.40;;;;;;;5.18;76.42;152691.81;5101877;28;20542;-76
2022/02/11 15:17:56;;;;;;;2.63;2.40;;;;;;;5.18;74.31;152691.81;5087180;28;20820;-76
2022/02/11 15:20:32;;;;;;;3.80;2.70;;;;;;;5.19;75.45;152695.66;5105929;28;20451;-76
2022/02/11 15:23:08;;;;;;;3.37;2.47;;;;;;;5.10;72.83;152672.47;5090467;28;20448;-76